Time;durP1;ratioP1;P1;durP2;ratioP2;P2;SDS_P1;SDS_P2;PMS_P1;PMS_P2;Temp;Humidity;BMP_temperature;BMP_pressure;BME280_temperature;BME280_humidity;BME280_pressure;Samples;Min_cycle;Max_cycle;Signal;HPM_P1;HPM_P2
2023/12/27 00:00:44;;;;;;;4.82;4.22;;;;;;;20.89;55.00;100630.41;41692897;28;20057;-72
2023/12/27 00:20:47;;;;;;;4.75;4.10;;;;;;;20.89;55.63;100650.66;41685924;28;20120;-72
2023/12/27 00:40:47;;;;;;;4.20;3.55;;;;;;;20.84;55.12;100692.25;41662976;28;20092;-72
2023/12/27 01:00:47;;;;;;;3.40;3.10;;;;;;;20.83;55.19;100709.81;41677562;28;20870;-72
2023/12/27 01:20:48;;;;;;;3.42;3.08;;;;;;;20.82;54.83;100739.72;41693144;28;20033;-73
2023/12/27 01:40:50;;;;;;;3.50;3.20;;;;;;;20.80;55.28;100767.97;41700513;28;20116;-72
2023/12/27 02:00:51;;;;;;;3.80;3.17;;;;;;;20.73;55.38;100764.06;41695560;28;20041;-72
2023/12/27 02:20:52;;;;;;;2.67;2.47;;;;;;;20.72;54.80;100789.53;41695343;28;20610;-72
2023/12/27 02:40:53;;;;;;;2.90;2.50;;;;;;;20.70;55.22;100801.06;41692371;28;20091;-70
2023/12/27 03:00:53;;;;;;;2.40;2.17;;;;;;;20.68;55.33;100788.03;41691708;28;20132;-73
2023/12/27 03:20:54;;;;;;;2.90;2.00;;;;;;;20.66;54.86;100799.63;41696927;28;20083;-71
2023/12/27 03:40:54;;;;;;;2.00;1.80;;;;;;;20.65;55.42;100832.97;41684091;28;20191;-71
2023/12/27 04:00:55;;;;;;;2.28;1.90;;;;;;;20.61;55.13;100836.75;41685859;28;20472;-73
2023/12/27 04:20:55;;;;;;;2.13;1.90;;;;;;;20.60;55.53;100850.84;41677189;28;20034;-72
2023/12/27 04:40:57;;;;;;;1.88;1.67;;;;;;;20.58;55.55;100873.78;41672559;28;20041;-71
2023/12/27 05:00:57;;;;;;;1.70;1.50;;;;;;;20.57;55.37;100898.44;41697637;28;20045;-70
2023/12/27 05:20:57;;;;;;;2.17;1.50;;;;;;;20.89;53.63;100930.50;41702543;28;20041;-72
2023/12/27 05:40:58;;;;;;;1.67;1.40;;;;;;;21.19;53.87;100939.91;41703654;28;20119;-72
2023/12/27 06:00:58;;;;;;;1.30;1.20;;;;;;;21.32;53.87;100970.66;41700180;28;20048;-71
2023/12/27 06:20:59;;;;;;;1.27;1.15;;;;;;;21.36;53.52;100985.28;41694602;28;20515;-72
2023/12/27 06:41:00;;;;;;;2.30;1.90;;;;;;;21.38;53.85;101028.19;41702796;28;20494;-72
2023/12/27 07:01:01;;;;;;;3.50;2.30;;;;;;;21.37;53.52;101058.97;41696025;28;20099;-69
2023/12/27 07:21:04;;;;;;;9.02;5.57;;;;;;;21.65;53.48;101096.63;41646474;28;20507;-71
2023/12/27 07:41:05;;;;;;;8.32;6.35;;;;;;;21.69;54.58;101121.00;41661863;28;20041;-69
2023/12/27 08:01:06;;;;;;;11.73;7.80;;;;;;;21.61;54.85;101137.34;41657762;28;20238;-69
2023/12/27 08:21:06;;;;;;;14.07;8.73;;;;;;;21.61;53.49;101176.88;41633266;28;20063;-69
2023/12/27 08:41:07;;;;;;;5.55;2.50;;;;;;;20.24;42.95;101196.88;41637869;28;20071;-68
2023/12/27 09:01:07;;;;;;;70.07;49.88;;;;;;;21.71;46.19;101256.16;41625561;28;20544;-69
2023/12/27 09:21:07;;;;;;;55.80;42.67;;;;;;;21.82;48.59;101264.22;41670124;28;20563;-65
2023/12/27 09:41:08;;;;;;;48.05;36.88;;;;;;;22.02;48.78;101270.81;41687051;28;20053;-67
2023/12/27 10:01:09;;;;;;;41.70;32.95;;;;;;;22.14;49.56;101266.50;41739378;28;20041;-73
2023/12/27 10:21:11;;;;;;;34.15;27.77;;;;;;;22.28;49.99;101276.09;41715600;28;20171;-73
2023/12/27 10:41:11;;;;;;;32.95;26.65;;;;;;;22.47;50.05;101244.06;41695503;28;20041;-70
2023/12/27 11:01:12;;;;;;;14.90;11.05;;;;;;;21.99;43.83;101239.34;41661632;28;20045;-73
2023/12/27 11:21:15;;;;;;;19.48;13.00;;;;;;;22.78;46.85;101207.56;41663774;28;20497;-75
2023/12/27 11:41:16;;;;;;;16.15;8.55;;;;;;;22.01;39.36;101203.19;41647927;28;20037;-71
2023/12/27 12:01:27;;;;;;;12.50;6.20;;;;;;;22.56;41.01;101192.41;41658480;28;20041;-70
2023/12/27 12:21:29;;;;;;;11.65;5.72;;;;;;;23.00;40.45;101180.47;41663017;28;21191;-74
2023/12/27 12:41:30;;;;;;;7.72;3.58;;;;;;;22.80;40.11;101173.13;41660678;28;20041;-73
2023/12/27 13:01:30;;;;;;;5.70;2.60;;;;;;;22.71;40.99;101143.78;41656175;28;20407;-74
2023/12/27 13:21:32;;;;;;;11.57;3.50;;;;;;;22.22;38.70;101139.34;41744620;28;20451;-72
2023/12/27 13:41:35;;;;;;;10.07;3.03;;;;;;;22.25;40.59;101151.47;41691038;28;20158;-73
2023/12/27 14:01:39;;;;;;;11.70;3.58;;;;;;;22.41;43.94;101148.63;41718107;28;20155;-68
2023/12/27 14:21:40;;;;;;;6.30;3.00;;;;;;;22.30;45.60;101163.41;41699714;28;20037;-68
2023/12/27 14:41:45;;;;;;;7.82;2.78;;;;;;;22.17;46.73;101150.22;41708883;28;20045;-69
2023/12/27 15:01:46;;;;;;;6.63;2.27;;;;;;;22.06;47.49;101179.13;41701329;28;20041;-69
2023/12/27 15:21:46;;;;;;;5.88;2.63;;;;;;;21.97;48.25;101185.03;41719471;28;20325;-69
2023/12/27 15:41:48;;;;;;;3.50;2.10;;;;;;;21.96;48.21;101170.16;41709817;28;20056;-70
2023/12/27 16:01:48;;;;;;;4.32;2.10;;;;;;;21.90;48.55;101163.53;41702960;28;20385;-69
2023/12/27 16:21:49;;;;;;;5.03;2.10;;;;;;;21.82;48.69;101153.47;41712441;28;20075;-66
2023/12/27 16:41:49;;;;;;;6.40;1.80;;;;;;;21.93;50.00;101155.38;41691567;28;20048;-66
2023/12/27 17:01:51;;;;;;;5.20;2.00;;;;;;;21.90;50.21;101145.06;41696190;28;20052;-66
2023/12/27 17:21:51;;;;;;;6.40;1.88;;;;;;;21.83;50.65;101183.34;41661664;28;20262;-66
2023/12/27 17:41:52;;;;;;;6.88;2.03;;;;;;;21.80;50.39;101189.66;41664032;28;20126;-67
2023/12/27 18:01:54;;;;;;;2.80;2.00;;;;;;;21.75;50.95;101205.78;41672190;28;20072;-67
2023/12/27 18:21:55;;;;;;;5.53;2.20;;;;;;;21.68;51.09;101224.72;41669755;28;20455;-67
2023/12/27 18:41:56;;;;;;;5.80;2.50;;;;;;;21.60;51.29;101206.81;41690414;28;20083;-68
2023/12/27 19:01:58;;;;;;;5.75;2.15;;;;;;;21.61;51.09;101189.22;41680887;28;20124;-69
2023/12/27 19:21:59;;;;;;;5.47;2.35;;;;;;;21.58;51.40;101179.69;41699903;28;20483;-69
2023/12/27 19:42:02;;;;;;;5.05;2.80;;;;;;;21.56;50.80;101187.72;41688676;28;20041;-69
2023/12/27 20:02:06;;;;;;;9.38;4.03;;;;;;;21.60;51.63;101198.91;41669365;28;20054;-68
2023/12/27 20:22:07;;;;;;;9.40;5.10;;;;;;;21.52;51.72;101215.19;41662303;28;20211;-65
2023/12/27 20:42:08;;;;;;;13.13;5.57;;;;;;;21.47;52.95;101203.25;41641896;28;20040;-66
2023/12/27 21:02:09;;;;;;;11.50;6.28;;;;;;;21.43;51.90;101199.97;41656362;28;20554;-68
2023/12/27 21:22:11;;;;;;;16.38;7.13;;;;;;;21.30;52.37;101191.19;41668656;28;20041;-70
2023/12/27 21:42:12;;;;;;;10.30;7.32;;;;;;;21.23;52.56;101190.75;41695368;28;20052;-71
2023/12/27 22:02:13;;;;;;;11.98;7.22;;;;;;;21.21;52.84;101193.47;41691020;28;20588;-69
2023/12/27 22:22:15;;;;;;;9.20;6.72;;;;;;;21.14;53.19;101165.00;41696656;28;20045;-69
2023/12/27 22:42:15;;;;;;;8.45;6.40;;;;;;;21.07;52.53;101169.84;41699250;28;20045;-69
2023/12/27 23:02:16;;;;;;;8.90;6.13;;;;;;;21.02;52.56;101149.06;41693343;28;20045;-70
2023/12/27 23:22:20;;;;;;;7.97;5.43;;;;;;;20.98;52.97;101150.19;41686417;28;20451;-70
2023/12/27 23:42:22;;;;;;;7.63;5.43;;;;;;;20.92;52.95;101147.94;41682837;28;20033;-69
